Terminal Aerodrome Forecast
Issued by NWS Charleston, WV

Current Version | Previous Version | Graphics & Text | Print | Product List | Glossary On
Versions: 1 2 3 4 5 6 7 8 9 10 11 12 13 14 15 16 17 18 19 20 21 22 23 24 25 26 27 28 29 30 31 32
000
FTUS41 KRLX 140253 AAA
TAFEKN
TAF AMD
KEKN 140253Z 1403/1424 34004KT P6SM SCT200
     FM140700 00000KT 2SM BR SCT150
     FM140800 00000KT 4SM BR BKN140
     FM141000 00000KT P6SM BKN120
     FM141400 16005KT P6SM BKN060
     FM141800 00000KT 4SM SHRA OVC035
     FM142200 06004KT P6SM OVC035=

USA.gov is the U.S. government's official web portal to all federal, state and local government web resources and services.